TIFM7: Elk River, Tiff City, MO

Data processed at Sun Apr 30 2017 22:39


All information presented herein is the property of the government of the United States of America and may be revised or deleted at any time without prior notice.
Dissemination of this information without the expressed written consent of the Public Affairs Office, Tulsa District U.S. Army Corps of Engineers is strictly prohibited.
These data are gathered electronically and, as presented, have not undergone any form of quality control. These data are not guaranteed to be valid or correct.
Go to home page.
Go to station list.
Go to station map.

Upstream stations:

Downstream station:
Previous Day
Next Day
Current Day
    
SHEF ID:       TIFM7     Elk River near Tiff City, Mo
STATION TYPE:  

               PRECIP     STAGE  STAGE(2)  RIV-FLOW   VOLTAGE
                   in        ft        ft       cfs      volt
              Ccp-Rev   Ccp-Rev   Ccp-Rev   Ccp-Rev   Ccp-Rev
(US/Central)
04/30 00:00      0.63     26.57     24.86     94571     12.50
04/30 01:00      0.03     25.75     24.65     83084     12.50
04/30 02:00      0.00     26.01     24.40     86606     12.40
04/30 03:00      0.00     25.61     24.50     81233     12.50
04/30 04:00      0.00     25.73     24.49     82818     12.40
04/30 05:00      0.07     25.53     24.43     80189     12.40
04/30 06:00      0.00     25.70     24.28     82419     12.40
04/30 07:00      0.00     25.73     24.04     82818     12.40
04/30 08:00      0.00     25.40     23.91     78514     12.40
04/30 09:00      0.00     25.09     23.61     74626     12.50
04/30 10:00      0.00     24.77     23.15     70767     12.60
04/30 11:00      0.00     24.13     22.71     63498     12.80
04/30 12:00      0.00     23.61     22.35     58018     12.70
04/30 13:00      0.00     23.01     21.76     52144     12.90
04/30 14:00      0.00     22.46     21.42     47162     13.10
04/30 15:00      0.00     21.68     20.82     41124     12.80
04/30 16:00      0.00     21.03     20.47     37094     12.60
04/30 17:00      0.00     20.67     20.08     35045     12.60
04/30 18:00      0.00     20.23     19.56     32909     12.60
04/30 19:00      0.00     19.71     19.08     30812     12.50
04/30 20:00      0.00     19.26     18.66     29399     12.50
04/30 21:00      0.00     18.73     18.27     27920     12.50
04/30 22:00      0.00     18.21     17.79      ----     12.10
04/30 23:00      ----      ----      ----      ----      ----